Jamestown, Michigan
Current Conditions -  °F | °C
As of 10:53 AM on Wednesday 22 Oct 2014 (Local Time) from KBIV Reporting Station
Clear Clear  
Wind Chill: 43°   Ceiling: Unl
Heat Index: 46°   Visibility: 10mi
Dew Point: 38°   Wind: 6mph
Humidity: 73%   Direction: 90°E
Pressure: 30.39"   Gusts: NA
Location:  42.83°N, 85.84°W
Report Text: KBIV 221453Z AUTO 09005KT 10SM CLR 08/03 A3039 RMK AO2 SLP296 I3000 T00780033 51010
Loading
Personal Weather Stations






























Interactive Weather Map
Tropical Storm Tracking
New forecast layout! Learn more

10-Day Weather Forecast

Advertisements
Track Severe Weather on mobile